sensor_id;sensor_type;location;lat;lon;timestamp;pressure;altitude;pressure_sealevel;temperature;humidity
54144;BME280;40050;47.324;18.792;2023-04-04T00:00:34;1006.02;;;6.43;41.61
54144;BME280;40050;47.324;18.792;2023-04-04T00:02:34;1006.27;;;6.58;42.04
54144;BME280;40050;47.324;18.792;2023-04-04T00:04:35;1006.26;;;6.50;42.17
54144;BME280;40050;47.324;18.792;2023-04-04T00:06:36;1006.24;;;6.46;42.42
54144;BME280;40050;47.324;18.792;2023-04-04T00:08:37;1006.30;;;6.42;42.55
54144;BME280;40050;47.324;18.792;2023-04-04T00:10:38;1006.24;;;6.35;42.50
54144;BME280;40050;47.324;18.792;2023-04-04T00:12:39;1006.28;;;6.34;42.84
54144;BME280;40050;47.324;18.792;2023-04-04T00:14:40;1006.41;;;6.32;43.06
54144;BME280;40050;47.324;18.792;2023-04-04T00:16:41;1006.36;;;6.28;43.28
54144;BME280;40050;47.324;18.792;2023-04-04T00:18:42;1006.38;;;6.25;43.30
54144;BME280;40050;47.324;18.792;2023-04-04T00:20:43;1006.08;;;6.00;43.35
54144;BME280;40050;47.324;18.792;2023-04-04T00:22:44;1006.42;;;6.17;43.56
54144;BME280;40050;47.324;18.792;2023-04-04T00:24:45;1006.32;;;6.05;43.71
54144;BME280;40050;47.324;18.792;2023-04-04T00:26:46;1006.40;;;6.09;43.72
54144;BME280;40050;47.324;18.792;2023-04-04T00:28:47;1006.45;;;6.03;43.80
54144;BME280;40050;47.324;18.792;2023-04-04T00:30:50;1006.41;;;5.96;44.13
54144;BME280;40050;47.324;18.792;2023-04-04T00:32:51;1006.44;;;5.93;44.12
54144;BME280;40050;47.324;18.792;2023-04-04T00:34:52;1006.41;;;5.88;44.03
54144;BME280;40050;47.324;18.792;2023-04-04T00:36:53;1006.43;;;5.83;44.39
54144;BME280;40050;47.324;18.792;2023-04-04T00:38:54;1006.43;;;5.75;44.28
54144;BME280;40050;47.324;18.792;2023-04-04T00:40:55;1006.42;;;5.73;44.42
54144;BME280;40050;47.324;18.792;2023-04-04T00:42:57;1006.41;;;5.70;44.74
54144;BME280;40050;47.324;18.792;2023-04-04T00:44:58;1006.43;;;5.64;44.62
54144;BME280;40050;47.324;18.792;2023-04-04T00:46:59;1006.37;;;5.58;45.04
54144;BME280;40050;47.324;18.792;2023-04-04T00:49:00;1006.37;;;5.51;45.46
54144;BME280;40050;47.324;18.792;2023-04-04T00:51:01;1006.44;;;5.51;45.43
54144;BME280;40050;47.324;18.792;2023-04-04T00:53:02;1006.39;;;5.46;45.23
54144;BME280;40050;47.324;18.792;2023-04-04T00:55:03;1006.31;;;5.32;45.38
54144;BME280;40050;47.324;18.792;2023-04-04T00:57:05;1006.33;;;5.31;45.49
54144;BME280;40050;47.324;18.792;2023-04-04T00:59:06;1006.14;;;5.18;45.80
54144;BME280;40050;47.324;18.792;2023-04-04T01:01:07;1006.25;;;5.20;45.79
54144;BME280;40050;47.324;18.792;2023-04-04T01:03:08;1006.20;;;5.16;46.05
54144;BME280;40050;47.324;18.792;2023-04-04T01:05:10;1006.14;;;5.11;46.19
54144;BME280;40050;47.324;18.792;2023-04-04T01:07:14;1006.11;;;5.04;46.23
54144;BME280;40050;47.324;18.792;2023-04-04T01:09:15;1006.11;;;4.98;46.39
54144;BME280;40050;47.324;18.792;2023-04-04T01:11:16;1006.06;;;4.94;46.88
54144;BME280;40050;47.324;18.792;2023-04-04T01:13:17;1006.06;;;4.89;46.61
54144;BME280;40050;47.324;18.792;2023-04-04T01:15:18;1006.02;;;4.83;46.68
54144;BME280;40050;47.324;18.792;2023-04-04T01:17:19;1005.99;;;4.74;46.89
54144;BME280;40050;47.324;18.792;2023-04-04T01:19:23;1005.98;;;4.72;47.13
54144;BME280;40050;47.324;18.792;2023-04-04T01:21:26;1005.91;;;4.62;47.45
54144;BME280;40050;47.324;18.792;2023-04-04T01:23:31;1005.87;;;4.54;47.43
54144;BME280;40050;47.324;18.792;2023-04-04T01:25:34;1005.87;;;4.50;47.66
54144;BME280;40050;47.324;18.792;2023-04-04T01:27:35;1005.88;;;4.46;47.41
54144;BME280;40050;47.324;18.792;2023-04-04T01:29:36;1005.81;;;4.42;47.20
54144;BME280;40050;47.324;18.792;2023-04-04T01:31:41;1005.77;;;4.39;47.24
54144;BME280;40050;47.324;18.792;2023-04-04T01:33:45;1005.69;;;4.30;47.15
54144;BME280;40050;47.324;18.792;2023-04-04T01:35:52;1005.68;;;4.25;47.29
54144;BME280;40050;47.324;18.792;2023-04-04T01:38:17;1005.63;;;4.18;47.32
54144;BME280;40050;47.324;18.792;2023-04-04T01:40:21;1005.59;;;4.07;47.51
54144;BME280;40050;47.324;18.792;2023-04-04T01:42:24;1005.62;;;4.06;47.52
54144;BME280;40050;47.324;18.792;2023-04-04T01:44:25;1005.57;;;3.97;47.85
54144;BME280;40050;47.324;18.792;2023-04-04T01:46:26;1005.57;;;3.97;48.19
54144;BME280;40050;47.324;18.792;2023-04-04T01:48:27;1005.57;;;3.87;48.38
54144;BME280;40050;47.324;18.792;2023-04-04T01:50:28;1005.47;;;3.84;48.24
54144;BME280;40050;47.324;18.792;2023-04-04T01:52:29;1005.45;;;3.86;48.05
54144;BME280;40050;47.324;18.792;2023-04-04T01:54:30;1005.39;;;3.85;47.96
54144;BME280;40050;47.324;18.792;2023-04-04T01:56:31;1005.36;;;3.80;48.27
54144;BME280;40050;47.324;18.792;2023-04-04T01:58:32;1005.31;;;3.71;48.53
54144;BME280;40050;47.324;18.792;2023-04-04T02:00:32;1005.34;;;3.65;48.63
54144;BME280;40050;47.324;18.792;2023-04-04T02:02:33;1005.33;;;3.68;48.99
54144;BME280;40050;47.324;18.792;2023-04-04T02:04:34;1005.21;;;3.65;49.16
54144;BME280;40050;47.324;18.792;2023-04-04T02:06:35;1005.23;;;3.67;48.77
54144;BME280;40050;47.324;18.792;2023-04-04T02:08:36;1005.18;;;3.66;48.88
54144;BME280;40050;47.324;18.792;2023-04-04T02:10:37;1005.17;;;3.58;49.09
54144;BME280;40050;47.324;18.792;2023-04-04T02:12:38;1005.24;;;3.57;49.32
54144;BME280;40050;47.324;18.792;2023-04-04T02:14:39;1005.14;;;3.61;49.41
54144;BME280;40050;47.324;18.792;2023-04-04T02:16:40;1005.00;;;3.57;49.17
54144;BME280;40050;47.324;18.792;2023-04-04T02:18:41;1005.09;;;3.54;49.24
54144;BME280;40050;47.324;18.792;2023-04-04T02:20:42;1005.06;;;3.49;49.16
54144;BME280;40050;47.324;18.792;2023-04-04T02:22:48;1005.04;;;3.49;49.10
54144;BME280;40050;47.324;18.792;2023-04-04T02:24:49;1004.95;;;3.41;49.17
54144;BME280;40050;47.324;18.792;2023-04-04T02:26:50;1004.98;;;3.43;49.26
54144;BME280;40050;47.324;18.792;2023-04-04T02:28:51;1004.93;;;3.39;49.33
54144;BME280;40050;47.324;18.792;2023-04-04T02:30:52;1004.74;;;3.26;49.18
54144;BME280;40050;47.324;18.792;2023-04-04T02:32:56;1004.89;;;3.35;49.39
54144;BME280;40050;47.324;18.792;2023-04-04T02:34:57;1004.96;;;3.31;49.26
54144;BME280;40050;47.324;18.792;2023-04-04T02:36:58;1004.95;;;3.39;49.03
54144;BME280;40050;47.324;18.792;2023-04-04T02:38:59;1004.89;;;3.36;49.16
54144;BME280;40050;47.324;18.792;2023-04-04T02:40:59;1004.86;;;3.33;49.00
54144;BME280;40050;47.324;18.792;2023-04-04T02:43:00;1004.89;;;3.35;48.87
54144;BME280;40050;47.324;18.792;2023-04-04T02:45:01;1004.90;;;3.39;48.80
54144;BME280;40050;47.324;18.792;2023-04-04T02:47:02;1004.91;;;3.33;49.04
54144;BME280;40050;47.324;18.792;2023-04-04T02:49:03;1004.93;;;3.33;49.04
54144;BME280;40050;47.324;18.792;2023-04-04T02:51:04;1004.96;;;3.34;48.97
54144;BME280;40050;47.324;18.792;2023-04-04T02:53:05;1004.90;;;3.33;48.97
54144;BME280;40050;47.324;18.792;2023-04-04T02:55:09;1004.89;;;3.28;48.82
54144;BME280;40050;47.324;18.792;2023-04-04T02:57:10;1004.98;;;3.31;48.90
54144;BME280;40050;47.324;18.792;2023-04-04T02:59:14;1005.00;;;3.34;48.56
54144;BME280;40050;47.324;18.792;2023-04-04T03:01:16;1005.02;;;3.30;48.66
54144;BME280;40050;47.324;18.792;2023-04-04T03:03:17;1005.04;;;3.30;48.71
54144;BME280;40050;47.324;18.792;2023-04-04T03:05:17;1005.14;;;3.27;48.81
54144;BME280;40050;47.324;18.792;2023-04-04T03:07:18;1005.10;;;3.23;48.62
54144;BME280;40050;47.324;18.792;2023-04-04T03:09:19;1005.20;;;3.33;48.85
54144;BME280;40050;47.324;18.792;2023-04-04T03:11:20;1004.78;;;2.98;49.15
54144;BME280;40050;47.324;18.792;2023-04-04T03:13:21;1005.25;;;3.25;49.35
54144;BME280;40050;47.324;18.792;2023-04-04T03:15:22;1005.24;;;3.23;49.48
54144;BME280;40050;47.324;18.792;2023-04-04T03:17:24;1005.24;;;3.24;49.47
54144;BME280;40050;47.324;18.792;2023-04-04T03:19:25;1005.24;;;3.19;49.66
54144;BME280;40050;47.324;18.792;2023-04-04T03:21:26;1005.26;;;3.18;49.56
54144;BME280;40050;47.324;18.792;2023-04-04T03:23:27;1005.19;;;3.13;49.72
54144;BME280;40050;47.324;18.792;2023-04-04T03:25:28;1005.20;;;3.10;49.83
54144;BME280;40050;47.324;18.792;2023-04-04T03:27:31;1005.19;;;3.08;49.93
54144;BME280;40050;47.324;18.792;2023-04-04T03:29:32;1005.21;;;3.10;49.89
54144;BME280;40050;47.324;18.792;2023-04-04T03:31:33;1005.25;;;3.15;49.80
54144;BME280;40050;47.324;18.792;2023-04-04T03:33:34;1005.28;;;3.08;50.14
54144;BME280;40050;47.324;18.792;2023-04-04T03:35:36;1005.23;;;3.05;50.31
54144;BME280;40050;47.324;18.792;2023-04-04T03:37:37;1005.21;;;3.04;49.99
54144;BME280;40050;47.324;18.792;2023-04-04T03:39:38;1005.34;;;3.06;50.23
54144;BME280;40050;47.324;18.792;2023-04-04T03:41:39;1005.37;;;3.03;50.45
54144;BME280;40050;47.324;18.792;2023-04-04T03:43:40;1005.36;;;3.00;50.44
54144;BME280;40050;47.324;18.792;2023-04-04T03:45:41;1005.35;;;3.01;50.40
54144;BME280;40050;47.324;18.792;2023-04-04T03:47:41;1005.37;;;2.94;50.51
54144;BME280;40050;47.324;18.792;2023-04-04T03:49:42;1005.41;;;2.95;50.71
54144;BME280;40050;47.324;18.792;2023-04-04T03:51:43;1005.42;;;2.95;50.71
54144;BME280;40050;47.324;18.792;2023-04-04T03:53:44;1005.39;;;2.96;50.70
54144;BME280;40050;47.324;18.792;2023-04-04T03:55:45;1005.38;;;2.92;50.97
54144;BME280;40050;47.324;18.792;2023-04-04T03:57:46;1005.36;;;2.91;50.98
54144;BME280;40050;47.324;18.792;2023-04-04T03:59:47;1005.39;;;2.90;51.07
54144;BME280;40050;47.324;18.792;2023-04-04T04:01:48;1005.30;;;2.88;51.18
54144;BME280;40050;47.324;18.792;2023-04-04T04:03:49;1005.33;;;2.87;51.32
54144;BME280;40050;47.324;18.792;2023-04-04T04:05:50;1005.30;;;2.80;51.38
54144;BME280;40050;47.324;18.792;2023-04-04T04:07:51;1005.30;;;2.81;51.23
54144;BME280;40050;47.324;18.792;2023-04-04T04:09:52;1005.34;;;2.81;51.33
54144;BME280;40050;47.324;18.792;2023-04-04T04:11:53;1005.31;;;2.76;51.40
54144;BME280;40050;47.324;18.792;2023-04-04T04:13:54;1005.29;;;2.78;51.33
54144;BME280;40050;47.324;18.792;2023-04-04T04:15:55;1005.30;;;2.76;51.35
54144;BME280;40050;47.324;18.792;2023-04-04T04:17:56;1005.29;;;2.72;51.56
54144;BME280;40050;47.324;18.792;2023-04-04T04:19:57;1005.23;;;2.68;51.65
54144;BME280;40050;47.324;18.792;2023-04-04T04:21:58;1005.21;;;2.65;51.55
54144;BME280;40050;47.324;18.792;2023-04-04T04:23:58;1005.18;;;2.65;51.62
54144;BME280;40050;47.324;18.792;2023-04-04T04:25:59;1005.23;;;2.67;51.76
54144;BME280;40050;47.324;18.792;2023-04-04T04:28:00;1005.14;;;2.63;51.82
54144;BME280;40050;47.324;18.792;2023-04-04T04:30:01;1005.15;;;2.62;51.69
54144;BME280;40050;47.324;18.792;2023-04-04T04:32:02;1005.15;;;2.61;51.90
54144;BME280;40050;47.324;18.792;2023-04-04T04:34:06;1005.13;;;2.56;52.11
54144;BME280;40050;47.324;18.792;2023-04-04T04:36:07;1005.21;;;2.58;52.25
54144;BME280;40050;47.324;18.792;2023-04-04T04:38:08;1005.18;;;2.57;52.38
54144;BME280;40050;47.324;18.792;2023-04-04T04:40:09;1005.11;;;2.55;52.31
54144;BME280;40050;47.324;18.792;2023-04-04T04:42:10;1004.88;;;2.44;52.25
54144;BME280;40050;47.324;18.792;2023-04-04T04:44:11;1005.04;;;2.50;52.17
54144;BME280;40050;47.324;18.792;2023-04-04T04:46:12;1005.15;;;2.56;52.22
54144;BME280;40050;47.324;18.792;2023-04-04T04:48:13;1005.14;;;2.60;52.39
54144;BME280;40050;47.324;18.792;2023-04-04T04:50:14;1005.20;;;2.60;52.34
54144;BME280;40050;47.324;18.792;2023-04-04T04:52:15;1005.22;;;2.61;52.36
54144;BME280;40050;47.324;18.792;2023-04-04T04:54:16;1005.19;;;2.59;52.18
54144;BME280;40050;47.324;18.792;2023-04-04T04:56:17;1005.18;;;2.61;52.20
54144;BME280;40050;47.324;18.792;2023-04-04T04:58:17;1005.16;;;2.66;52.05
54144;BME280;40050;47.324;18.792;2023-04-04T05:00:19;1005.11;;;2.69;51.98
54144;BME280;40050;47.324;18.792;2023-04-04T05:02:20;1005.14;;;2.74;51.76
54144;BME280;40050;47.324;18.792;2023-04-04T05:04:21;1005.16;;;2.76;52.95
54144;BME280;40050;47.324;18.792;2023-04-04T05:06:22;1005.14;;;2.81;52.02
54144;BME280;40050;47.324;18.792;2023-04-04T05:08:23;1005.15;;;2.88;51.60
54144;BME280;40050;47.324;18.792;2023-04-04T05:10:24;1005.13;;;2.87;51.58
54144;BME280;40050;47.324;18.792;2023-04-04T05:12:24;1005.13;;;2.89;51.66
54144;BME280;40050;47.324;18.792;2023-04-04T05:14:25;1005.16;;;2.86;51.59
54144;BME280;40050;47.324;18.792;2023-04-04T05:16:26;1005.19;;;2.90;51.54
54144;BME280;40050;47.324;18.792;2023-04-04T05:18:27;1005.17;;;2.93;51.27
54144;BME280;40050;47.324;18.792;2023-04-04T05:20:28;1005.16;;;2.99;51.06
54144;BME280;40050;47.324;18.792;2023-04-04T05:22:29;1005.17;;;3.02;51.14
54144;BME280;40050;47.324;18.792;2023-04-04T05:24:30;1005.22;;;3.01;51.03
54144;BME280;40050;47.324;18.792;2023-04-04T05:26:31;1005.14;;;2.97;51.25
54144;BME280;40050;47.324;18.792;2023-04-04T05:28:32;1005.23;;;3.08;51.04
54144;BME280;40050;47.324;18.792;2023-04-04T05:30:33;1005.22;;;3.07;51.18
54144;BME280;40050;47.324;18.792;2023-04-04T05:32:34;1005.21;;;3.04;51.48
54144;BME280;40050;47.324;18.792;2023-04-04T05:34:35;1005.27;;;3.11;51.07
54144;BME280;40050;47.324;18.792;2023-04-04T05:36:36;1005.23;;;3.16;50.97
54144;BME280;40050;47.324;18.792;2023-04-04T05:38:37;1005.31;;;3.24;51.16
54144;BME280;40050;47.324;18.792;2023-04-04T05:40:38;1005.25;;;3.21;51.22
54144;BME280;40050;47.324;18.792;2023-04-04T05:42:39;1005.27;;;3.27;51.64
54144;BME280;40050;47.324;18.792;2023-04-04T05:44:40;1005.38;;;3.37;51.72
54144;BME280;40050;47.324;18.792;2023-04-04T05:46:41;1005.32;;;3.48;51.57
54144;BME280;40050;47.324;18.792;2023-04-04T05:48:42;1005.33;;;3.51;51.78
54144;BME280;40050;47.324;18.792;2023-04-04T05:50:45;1005.35;;;3.62;51.27
54144;BME280;40050;47.324;18.792;2023-04-04T05:52:46;1005.25;;;3.65;50.88
54144;BME280;40050;47.324;18.792;2023-04-04T05:54:47;1005.33;;;3.73;51.01
54144;BME280;40050;47.324;18.792;2023-04-04T05:56:48;1005.32;;;3.74;50.57
54144;BME280;40050;47.324;18.792;2023-04-04T05:58:49;1005.35;;;3.79;50.41
54144;BME280;40050;47.324;18.792;2023-04-04T06:00:50;1005.45;;;3.90;50.66
54144;BME280;40050;47.324;18.792;2023-04-04T06:02:51;1005.42;;;3.99;49.98
54144;BME280;40050;47.324;18.792;2023-04-04T06:04:51;1005.43;;;4.05;49.90
54144;BME280;40050;47.324;18.792;2023-04-04T06:06:52;1005.44;;;4.12;49.66
54144;BME280;40050;47.324;18.792;2023-04-04T06:08:54;1005.52;;;4.24;49.71
54144;BME280;40050;47.324;18.792;2023-04-04T06:10:54;1005.37;;;4.26;49.78
54144;BME280;40050;47.324;18.792;2023-04-04T06:12:55;1005.42;;;4.45;49.52
54144;BME280;40050;47.324;18.792;2023-04-04T06:14:56;1005.08;;;4.34;49.21
54144;BME280;40050;47.324;18.792;2023-04-04T06:16:57;1005.41;;;4.65;49.07
54144;BME280;40050;47.324;18.792;2023-04-04T06:18:58;1005.42;;;4.79;48.50
54144;BME280;40050;47.324;18.792;2023-04-04T06:20:59;1005.42;;;4.93;48.52
54144;BME280;40050;47.324;18.792;2023-04-04T06:23:00;1005.34;;;5.05;48.63
54144;BME280;40050;47.324;18.792;2023-04-04T06:25:01;1005.33;;;5.20;48.62
54144;BME280;40050;47.324;18.792;2023-04-04T06:27:02;1005.25;;;5.29;48.65
54144;BME280;40050;47.324;18.792;2023-04-04T06:29:03;1005.22;;;5.41;48.41
54144;BME280;40050;47.324;18.792;2023-04-04T06:31:06;1005.12;;;5.54;47.68
54144;BME280;40050;47.324;18.792;2023-04-04T06:33:07;1005.04;;;5.64;47.19
54144;BME280;40050;47.324;18.792;2023-04-04T06:35:08;1004.93;;;5.67;47.33
54144;BME280;40050;47.324;18.792;2023-04-04T06:37:09;1004.95;;;5.79;46.87
54144;BME280;40050;47.324;18.792;2023-04-04T06:39:10;1005.02;;;5.79;46.67
54144;BME280;40050;47.324;18.792;2023-04-04T06:41:11;1005.01;;;5.83;46.46
54144;BME280;40050;47.324;18.792;2023-04-04T06:43:12;1005.11;;;5.90;46.63
54144;BME280;40050;47.324;18.792;2023-04-04T06:45:13;1005.03;;;5.95;46.04
54144;BME280;40050;47.324;18.792;2023-04-04T06:47:14;1004.99;;;6.00;45.74
54144;BME280;40050;47.324;18.792;2023-04-04T06:49:15;1005.05;;;6.03;45.52
54144;BME280;40050;47.324;18.792;2023-04-04T06:51:15;1004.92;;;5.96;45.56
54144;BME280;40050;47.324;18.792;2023-04-04T06:53:16;1005.05;;;6.02;45.26
54144;BME280;40050;47.324;18.792;2023-04-04T06:55:17;1005.04;;;6.02;45.67
54144;BME280;40050;47.324;18.792;2023-04-04T06:57:18;1005.05;;;6.05;45.23
54144;BME280;40050;47.324;18.792;2023-04-04T06:59:19;1005.08;;;6.13;45.51
54144;BME280;40050;47.324;18.792;2023-04-04T07:01:20;1005.10;;;6.19;45.71
54144;BME280;40050;47.324;18.792;2023-04-04T07:03:21;1005.12;;;6.23;45.92
54144;BME280;40050;47.324;18.792;2023-04-04T07:05:22;1005.02;;;6.13;45.72
54144;BME280;40050;47.324;18.792;2023-04-04T07:07:23;1005.11;;;6.20;45.92
54144;BME280;40050;47.324;18.792;2023-04-04T07:09:24;1005.32;;;6.37;45.41
54144;BME280;40050;47.324;18.792;2023-04-04T07:11:25;1005.29;;;6.43;45.52
54144;BME280;40050;47.324;18.792;2023-04-04T07:13:26;1005.33;;;6.56;45.41
54144;BME280;40050;47.324;18.792;2023-04-04T07:15:27;1005.34;;;6.59;45.01
54144;BME280;40050;47.324;18.792;2023-04-04T07:17:28;1005.44;;;6.60;44.67
54144;BME280;40050;47.324;18.792;2023-04-04T07:19:28;1005.36;;;6.59;44.30
54144;BME280;40050;47.324;18.792;2023-04-04T07:21:29;1005.32;;;6.63;43.71
54144;BME280;40050;47.324;18.792;2023-04-04T07:23:30;1005.29;;;6.62;44.10
54144;BME280;40050;47.324;18.792;2023-04-04T07:25:31;1005.24;;;6.68;44.98
54144;BME280;40050;47.324;18.792;2023-04-04T07:27:32;1005.11;;;6.69;45.22
54144;BME280;40050;47.324;18.792;2023-04-04T07:29:33;1005.19;;;6.80;45.02
54144;BME280;40050;47.324;18.792;2023-04-04T07:31:34;1005.25;;;6.87;44.32
54144;BME280;40050;47.324;18.792;2023-04-04T07:33:35;1004.71;;;6.53;43.90
54144;BME280;40050;47.324;18.792;2023-04-04T07:35:36;1004.97;;;6.71;44.47
54144;BME280;40050;47.324;18.792;2023-04-04T07:37:37;1005.30;;;6.91;44.70
54144;BME280;40050;47.324;18.792;2023-04-04T07:39:38;1005.20;;;6.99;44.98
54144;BME280;40050;47.324;18.792;2023-04-04T07:41:39;1005.18;;;7.09;44.72
54144;BME280;40050;47.324;18.792;2023-04-04T07:43:40;1005.16;;;7.17;44.84
54144;BME280;40050;47.324;18.792;2023-04-04T07:45:41;1005.23;;;7.28;43.63
54144;BME280;40050;47.324;18.792;2023-04-04T07:47:42;1005.34;;;7.35;43.32
54144;BME280;40050;47.324;18.792;2023-04-04T07:49:43;1005.17;;;7.31;43.63
54144;BME280;40050;47.324;18.792;2023-04-04T07:51:44;1004.99;;;7.36;43.37
54144;BME280;40050;47.324;18.792;2023-04-04T07:53:45;1005.21;;;7.72;43.13
54144;BME280;40050;47.324;18.792;2023-04-04T07:55:46;1005.20;;;7.79;43.68
54144;BME280;40050;47.324;18.792;2023-04-04T07:57:47;1005.17;;;7.93;43.66
54144;BME280;40050;47.324;18.792;2023-04-04T07:59:48;1005.14;;;8.17;44.20
54144;BME280;40050;47.324;18.792;2023-04-04T08:01:49;1005.22;;;8.34;42.85
54144;BME280;40050;47.324;18.792;2023-04-04T08:03:49;1005.30;;;8.39;42.50
54144;BME280;40050;47.324;18.792;2023-04-04T08:05:50;1005.22;;;8.46;42.78
54144;BME280;40050;47.324;18.792;2023-04-04T08:07:51;1005.24;;;8.54;42.05
54144;BME280;40050;47.324;18.792;2023-04-04T08:09:52;1005.18;;;8.59;41.28
54144;BME280;40050;47.324;18.792;2023-04-04T08:11:53;1005.28;;;8.63;41.05
54144;BME280;40050;47.324;18.792;2023-04-04T08:13:54;1005.31;;;8.72;41.39
54144;BME280;40050;47.324;18.792;2023-04-04T08:15:55;1005.14;;;8.66;40.81
54144;BME280;40050;47.324;18.792;2023-04-04T08:17:56;1005.32;;;8.89;40.37
54144;BME280;40050;47.324;18.792;2023-04-04T08:19:57;1005.27;;;8.92;40.53
54144;BME280;40050;47.324;18.792;2023-04-04T08:21:58;1005.20;;;8.93;40.21
54144;BME280;40050;47.324;18.792;2023-04-04T08:23:58;1005.20;;;8.95;39.96
54144;BME280;40050;47.324;18.792;2023-04-04T08:25:59;1005.23;;;8.93;39.70
54144;BME280;40050;47.324;18.792;2023-04-04T08:28:00;1005.22;;;8.98;40.00
54144;BME280;40050;47.324;18.792;2023-04-04T08:30:02;1005.32;;;9.03;39.60
54144;BME280;40050;47.324;18.792;2023-04-04T08:32:03;1005.26;;;9.14;40.25
54144;BME280;40050;47.324;18.792;2023-04-04T08:34:04;1005.28;;;9.34;39.91
54144;BME280;40050;47.324;18.792;2023-04-04T08:36:05;1005.23;;;9.42;39.89
54144;BME280;40050;47.324;18.792;2023-04-04T08:38:06;1005.10;;;9.48;39.25
54144;BME280;40050;47.324;18.792;2023-04-04T08:40:07;1004.62;;;9.24;39.53
54144;BME280;40050;47.324;18.792;2023-04-04T08:42:08;1005.07;;;9.63;39.13
54144;BME280;40050;47.324;18.792;2023-04-04T08:44:09;1005.05;;;9.65;39.13
54144;BME280;40050;47.324;18.792;2023-04-04T08:46:12;1005.04;;;9.68;39.29
54144;BME280;40050;47.324;18.792;2023-04-04T08:48:15;1005.00;;;9.70;38.73
54144;BME280;40050;47.324;18.792;2023-04-04T08:50:17;1004.97;;;9.69;39.91
54144;BME280;40050;47.324;18.792;2023-04-04T08:52:19;1004.92;;;9.76;39.00
54144;BME280;40050;47.324;18.792;2023-04-04T08:54:20;1004.91;;;9.84;38.41
54144;BME280;40050;47.324;18.792;2023-04-04T08:56:21;1004.78;;;9.87;38.42
54144;BME280;40050;47.324;18.792;2023-04-04T08:58:22;1004.78;;;9.90;38.60
54144;BME280;40050;47.324;18.792;2023-04-04T09:00:23;1004.83;;;9.99;38.97
54144;BME280;40050;47.324;18.792;2023-04-04T09:02:41;1004.82;;;10.07;38.93
54144;BME280;40050;47.324;18.792;2023-04-04T09:04:42;1004.81;;;10.23;38.41
54144;BME280;40050;47.324;18.792;2023-04-04T09:06:44;1004.91;;;10.23;37.66
54144;BME280;40050;47.324;18.792;2023-04-04T09:08:45;1004.98;;;10.25;38.12
54144;BME280;40050;47.324;18.792;2023-04-04T09:10:47;1004.91;;;10.27;37.83
54144;BME280;40050;47.324;18.792;2023-04-04T09:12:49;1004.84;;;10.34;37.68
54144;BME280;40050;47.324;18.792;2023-04-04T09:14:51;1004.77;;;10.30;36.94
54144;BME280;40050;47.324;18.792;2023-04-04T09:16:52;1004.87;;;10.33;37.04
54144;BME280;40050;47.324;18.792;2023-04-04T09:18:53;1004.68;;;10.14;36.96
54144;BME280;40050;47.324;18.792;2023-04-04T09:20:54;1004.93;;;10.26;36.65
54144;BME280;40050;47.324;18.792;2023-04-04T09:22:55;1004.83;;;10.24;36.35
54144;BME280;40050;47.324;18.792;2023-04-04T09:24:56;1004.83;;;10.21;36.61
54144;BME280;40050;47.324;18.792;2023-04-04T09:26:57;1004.87;;;10.21;36.29
54144;BME280;40050;47.324;18.792;2023-04-04T09:28:58;1004.85;;;10.17;37.01
54144;BME280;40050;47.324;18.792;2023-04-04T09:30:59;1004.91;;;10.16;37.23
54144;BME280;40050;47.324;18.792;2023-04-04T09:33:01;1004.81;;;10.18;37.00
54144;BME280;40050;47.324;18.792;2023-04-04T09:35:03;1004.87;;;10.26;36.75
54144;BME280;40050;47.324;18.792;2023-04-04T09:37:04;1004.81;;;10.30;37.62
54144;BME280;40050;47.324;18.792;2023-04-04T09:39:06;1004.80;;;10.41;36.27
54144;BME280;40050;47.324;18.792;2023-04-04T09:41:07;1004.65;;;10.51;36.35
54144;BME280;40050;47.324;18.792;2023-04-04T09:43:08;1004.66;;;10.55;37.44
54144;BME280;40050;47.324;18.792;2023-04-04T09:45:11;1004.72;;;10.62;36.95
54144;BME280;40050;47.324;18.792;2023-04-04T09:47:22;1004.63;;;10.72;37.37
54144;BME280;40050;47.324;18.792;2023-04-04T09:49:23;1004.62;;;10.81;36.19
54144;BME280;40050;47.324;18.792;2023-04-04T09:51:24;1004.60;;;10.86;36.50
54144;BME280;40050;47.324;18.792;2023-04-04T09:53:33;1004.66;;;10.85;36.72
54144;BME280;40050;47.324;18.792;2023-04-04T09:55:35;1004.77;;;10.96;36.28
54144;BME280;40050;47.324;18.792;2023-04-04T09:57:36;1004.79;;;11.01;36.11
54144;BME280;40050;47.324;18.792;2023-04-04T09:59:37;1004.73;;;11.07;36.39
54144;BME280;40050;47.324;18.792;2023-04-04T10:01:38;1004.58;;;11.03;36.26
54144;BME280;40050;47.324;18.792;2023-04-04T10:03:39;1004.66;;;11.16;35.27
54144;BME280;40050;47.324;18.792;2023-04-04T10:05:40;1004.46;;;11.13;36.04
54144;BME280;40050;47.324;18.792;2023-04-04T10:07:41;1004.59;;;11.35;36.23
54144;BME280;40050;47.324;18.792;2023-04-04T10:09:42;1004.59;;;11.38;36.12
54144;BME280;40050;47.324;18.792;2023-04-04T10:11:45;1004.56;;;11.42;36.08
54144;BME280;40050;47.324;18.792;2023-04-04T10:13:46;1004.49;;;11.38;36.02
54144;BME280;40050;47.324;18.792;2023-04-04T10:15:51;1004.22;;;11.19;35.93
54144;BME280;40050;47.324;18.792;2023-04-04T10:17:52;1004.46;;;11.48;36.33
54144;BME280;40050;47.324;18.792;2023-04-04T10:19:54;1004.44;;;11.57;35.47
54144;BME280;40050;47.324;18.792;2023-04-04T10:21:57;1004.43;;;11.53;36.19
54144;BME280;40050;47.324;18.792;2023-04-04T10:23:58;1004.50;;;11.67;36.35
54144;BME280;40050;47.324;18.792;2023-04-04T10:26:00;1004.43;;;11.69;35.69
54144;BME280;40050;47.324;18.792;2023-04-04T10:28:01;1004.42;;;11.76;35.51
54144;BME280;40050;47.324;18.792;2023-04-04T10:30:02;1004.42;;;11.73;36.51
54144;BME280;40050;47.324;18.792;2023-04-04T10:32:06;1004.41;;;11.76;35.50
54144;BME280;40050;47.324;18.792;2023-04-04T10:34:09;1004.36;;;11.86;36.29
54144;BME280;40050;47.324;18.792;2023-04-04T10:36:12;1004.34;;;11.90;35.41
54144;BME280;40050;47.324;18.792;2023-04-04T10:38:13;1004.35;;;12.02;35.07
54144;BME280;40050;47.324;18.792;2023-04-04T10:40:16;1004.34;;;12.15;35.60
54144;BME280;40050;47.324;18.792;2023-04-04T10:42:18;1004.29;;;12.15;35.04
54144;BME280;40050;47.324;18.792;2023-04-04T10:44:23;1004.14;;;12.13;34.80
54144;BME280;40050;47.324;18.792;2023-04-04T10:46:27;1004.32;;;12.17;34.96
54144;BME280;40050;47.324;18.792;2023-04-04T10:48:29;1004.21;;;12.23;34.75
54144;BME280;40050;47.324;18.792;2023-04-04T10:50:30;1004.31;;;12.20;35.08